Time;durP1;ratioP1;P1;durP2;ratioP2;P2;SDS_P1;SDS_P2;PMS_P1;PMS_P2;Temp;Humidity;BMP_temperature;BMP_pressure;BME280_temperature;BME280_humidity;BME280_pressure;Samples;Min_cycle;Max_cycle;Signal;HPM_P1;HPM_P2
2023/07/28 00:00:58;;;;;;;2.70;2.17;;;15.00;99.90;14.50;99405;;;;559587;253;24136;-85
2023/07/28 00:03:26;;;;;;;3.83;2.10;;;15.00;99.90;14.50;99398;;;;559510;253;24164;-85
2023/07/28 00:05:53;;;;;;;3.30;2.33;;;15.10;99.90;14.50;99393;;;;559522;253;24115;-85
2023/07/28 00:08:22;;;;;;;2.10;1.90;;;15.10;99.90;14.60;99386;;;;559738;253;24112;-84
2023/07/28 00:10:50;;;;;;;4.57;2.17;;;15.10;99.90;14.60;99384;;;;559478;253;24104;-83
2023/07/28 00:13:18;;;;;;;2.20;2.00;;;15.10;99.90;14.60;99387;;;;558938;253;24115;-83
2023/07/28 00:15:46;;;;;;;2.37;2.13;;;15.10;99.90;14.60;99384;;;;558767;253;24196;-83
2023/07/28 00:18:14;;;;;;;2.20;2.00;;;15.20;99.90;14.60;99379;;;;558978;253;24141;-83
2023/07/28 00:20:42;;;;;;;2.50;1.90;;;15.20;99.90;14.60;99383;;;;558843;253;24153;-83
2023/07/28 00:23:10;;;;;;;1.97;1.80;;;15.20;99.90;14.60;99376;;;;558817;253;24168;-85
2023/07/28 00:25:37;;;;;;;2.43;2.17;;;15.20;99.90;14.70;99367;;;;560700;252;24133;-85
2023/07/28 00:28:06;;;;;;;2.30;2.00;;;15.20;99.90;14.70;99365;;;;560209;252;24219;-83
2023/07/28 00:30:33;;;;;;;2.20;2.00;;;15.20;99.90;14.70;99363;;;;559934;252;24219;-83
2023/07/28 00:33:05;;;;;;;3.67;2.17;;;15.20;99.90;14.70;99356;;;;560376;252;24201;-86
2023/07/28 00:35:33;;;;;;;2.53;2.20;;;15.20;99.90;14.70;99357;;;;560214;252;24139;-86
2023/07/28 00:38:03;;;;;;;3.00;2.20;;;15.20;99.90;14.60;99360;;;;559771;252;24131;-86
2023/07/28 00:40:27;;;;;;;3.00;2.17;;;15.20;99.90;14.60;99350;;;;559210;252;24119;-83
2023/07/28 00:42:55;;;;;;;3.63;1.83;;;15.20;99.90;14.60;99354;;;;559834;252;24170;-83
2023/07/28 00:45:26;;;;;;;4.07;2.23;;;15.20;99.90;14.60;99347;;;;560039;252;24117;-85
2023/07/28 00:47:51;;;;;;;3.47;2.40;;;15.20;99.90;14.60;99350;;;;559303;252;24128;-82
2023/07/28 00:50:22;;;;;;;5.70;2.40;;;15.20;99.90;14.50;99351;;;;559451;252;24115;-82
2023/07/28 00:52:49;;;;;;;4.50;2.13;;;15.10;99.90;14.50;99344;;;;559227;252;24196;-82
2023/07/28 00:55:15;;;;;;;3.47;2.20;;;15.10;99.90;14.50;99343;;;;567215;248;24154;-82
2023/07/28 00:57:43;;;;;;;2.47;1.93;;;15.10;99.90;14.50;99341;;;;558938;252;24135;-83
2023/07/28 01:00:14;;;;;;;2.47;2.00;;;15.10;99.90;14.40;99337;;;;559310;253;24142;-81
2023/07/28 01:02:39;;;;;;;3.83;1.90;;;15.00;99.90;14.40;99336;;;;561993;253;24172;-81
2023/07/28 01:05:09;;;;;;;2.43;2.23;;;15.00;99.90;14.40;99334;;;;559214;253;24197;-81
2023/07/28 01:07:52;;;;;;;2.30;2.10;;;15.00;99.90;14.40;99333;;;;556225;253;24218;-81
2023/07/28 01:10:27;;;;;;;2.70;2.30;;;15.00;99.90;14.40;99329;;;;567242;253;24157;-83
2023/07/28 01:12:54;;;;;;;2.17;2.00;;;15.00;99.90;14.40;99333;;;;567432;253;24133;-82
2023/07/28 01:15:22;;;;;;;5.23;2.50;;;15.00;99.90;14.40;99335;;;;559069;253;24170;-85
2023/07/28 01:17:51;;;;;;;6.50;1.90;;;15.00;99.90;14.40;99328;;;;558891;253;25190;-82
2023/07/28 01:20:19;;;;;;;2.73;2.50;;;15.00;99.90;14.50;99318;;;;558649;253;24138;-81
2023/07/28 01:23:17;;;;;;;9.70;2.60;;;15.00;99.90;14.50;99315;;;;567462;253;24181;-85
2023/07/28 01:25:50;;;;;;;5.83;2.63;;;15.00;99.90;14.50;99319;;;;567677;253;24119;-85
2023/07/28 01:28:19;;;;;;;4.10;2.70;;;15.00;99.90;14.50;99326;;;;558936;253;24123;-82
2023/07/28 01:30:47;;;;;;;3.80;2.67;;;15.00;99.90;14.50;99321;;;;557069;253;24143;-81
2023/07/28 01:33:15;;;;;;;2.73;2.07;;;15.00;99.90;14.50;99323;;;;559515;253;24111;-86
2023/07/28 01:35:47;;;;;;;9.67;2.60;;;15.10;99.90;14.50;99319;;;;559994;251;24168;-84
2023/07/28 01:38:12;;;;;;;2.87;2.00;;;15.10;99.90;14.50;99311;;;;560533;252;24161;-82
2023/07/28 01:40:39;;;;;;;4.10;2.53;;;15.10;99.90;14.50;99304;;;;560005;252;24224;-82
2023/07/28 01:43:07;;;;;;;6.50;2.10;;;15.10;99.90;14.50;99308;;;;559928;252;24127;-82
2023/07/28 01:45:34;;;;;;;7.87;2.40;;;15.10;99.90;14.60;99297;;;;559367;252;24124;-81
2023/07/28 01:48:02;;;;;;;2.47;2.10;;;15.20;99.90;14.60;99305;;;;559450;252;24111;-81
2023/07/28 01:50:31;;;;;;;3.13;2.30;;;15.20;99.90;14.60;99296;;;;559383;252;24143;-82
2023/07/28 01:52:59;;;;;;;4.77;2.40;;;15.20;99.90;14.60;99307;;;;559948;252;24142;-83
2023/07/28 01:55:30;;;;;;;2.53;2.33;;;15.20;99.90;14.70;99298;;;;560285;252;24132;-84
2023/07/28 01:57:55;;;;;;;3.90;2.70;;;15.20;99.90;14.70;99296;;;;559172;252;24146;-82
2023/07/28 02:00:23;;;;;;;2.87;2.50;;;15.20;99.90;14.70;99283;;;;557745;252;25165;-83
2023/07/28 02:02:54;;;;;;;4.87;2.17;;;15.30;99.90;14.70;99282;;;;567972;252;24141;-83
2023/07/28 02:05:19;;;;;;;3.75;3.03;;;15.30;99.90;14.70;99289;;;;562652;250;35486;-82
2023/07/28 02:07:48;;;;;;;8.55;3.80;;;15.30;99.90;14.70;99283;;;;555015;252;35450;-82
2023/07/28 02:10:16;;;;;;;12.53;4.27;;;15.30;99.90;14.70;99283;;;;568002;252;24127;-82
2023/07/28 02:12:44;;;;;;;6.30;3.23;;;15.30;99.90;14.80;99283;;;;559439;253;24138;-83
2023/07/28 02:15:14;;;;;;;3.43;2.50;;;15.30;99.90;14.80;99287;;;;559184;253;24155;-81
2023/07/28 02:17:40;;;;;;;6.90;2.90;;;15.40;99.90;14.80;99273;;;;558935;253;25227;-82
2023/07/28 02:20:12;;;;;;;6.90;2.50;;;15.40;99.90;14.80;99278;;;;558978;253;24118;-83
2023/07/28 02:22:36;;;;;;;7.60;3.07;;;15.40;99.90;14.80;99270;;;;566941;249;24139;-83
2023/07/28 02:25:07;;;;;;;2.17;1.83;;;15.40;99.90;14.80;99270;;;;558976;253;24200;-83
2023/07/28 02:27:32;;;;;;;4.13;2.50;;;15.40;99.90;14.80;99273;;;;562498;253;24144;-85
2023/07/28 02:30:01;;;;;;;5.67;2.90;;;15.40;99.90;14.80;99259;;;;559561;253;24135;-85
2023/07/28 02:32:31;;;;;;;5.33;2.97;;;15.40;99.90;14.80;99275;;;;559791;253;24144;-85
2023/07/28 02:34:56;;;;;;;2.90;2.40;;;15.40;99.90;14.80;99278;;;;559540;253;24147;-85
2023/07/28 02:37:27;;;;;;;2.90;2.60;;;15.30;99.90;14.80;99283;;;;560061;253;24124;-82
2023/07/28 02:39:52;;;;;;;6.83;2.67;;;15.30;99.90;14.80;99282;;;;559432;253;24128;-84
2023/07/28 02:42:23;;;;;;;2.83;2.63;;;15.40;99.90;14.80;99276;;;;559438;253;24181;-83
2023/07/28 02:44:49;;;;;;;3.37;2.70;;;15.30;99.90;14.80;99274;;;;559477;253;24120;-83
2023/07/28 02:47:17;;;;;;;5.03;3.08;;;15.40;99.90;14.80;99267;;;;555256;251;40420;-85
2023/07/28 02:49:45;;;;;;;7.67;2.90;;;15.40;99.90;14.80;99266;;;;560781;252;24128;-85
2023/07/28 02:52:13;;;;;;;9.37;3.23;;;15.30;99.90;14.80;99262;;;;560328;252;24221;-86
2023/07/28 02:54:41;;;;;;;3.27;2.77;;;15.30;99.90;14.70;99266;;;;560263;252;24135;-86
2023/07/28 02:57:09;;;;;;;5.83;3.00;;;15.30;99.90;14.70;99271;;;;560323;248;24201;-84
2023/07/28 02:59:38;;;;;;;3.87;3.00;;;15.20;99.90;14.60;99270;;;;568707;252;24112;-85
2023/07/28 03:02:06;;;;;;;3.13;2.73;;;15.20;99.90;14.60;99278;;;;560984;252;24171;-83
2023/07/28 03:04:34;;;;;;;3.47;3.17;;;15.20;99.90;14.60;99276;;;;560133;252;24141;-83
2023/07/28 03:07:02;;;;;;;4.53;2.87;;;15.20;99.90;14.60;99274;;;;559840;252;24126;-83
2023/07/28 03:09:30;;;;;;;6.93;2.93;;;15.20;99.90;14.60;99273;;;;560136;252;24118;-83
2023/07/28 03:11:58;;;;;;;3.97;2.90;;;15.20;99.90;14.60;99271;;;;559892;252;24115;-82
2023/07/28 03:14:26;;;;;;;3.17;2.87;;;15.20;99.90;14.60;99268;;;;559762;252;24149;-83
2023/07/28 03:16:54;;;;;;;5.43;2.90;;;15.10;99.90;14.50;99274;;;;559673;252;24123;-84
2023/07/28 03:19:22;;;;;;;5.80;3.40;;;15.10;99.90;14.50;99267;;;;559505;252;24151;-81
2023/07/28 03:21:51;;;;;;;4.37;3.23;;;15.00;99.90;14.50;99269;;;;559249;252;24145;-84
2023/07/28 03:24:20;;;;;;;5.57;2.63;;;15.00;99.90;14.50;99264;;;;559223;253;24157;-83
2023/07/28 03:26:48;;;;;;;4.17;2.97;;;15.00;99.90;14.50;99253;;;;559064;253;24150;-82
2023/07/28 03:29:16;;;;;;;4.57;3.03;;;15.10;99.90;14.50;99253;;;;559578;253;24166;-83
2023/07/28 03:31:44;;;;;;;7.43;3.17;;;15.10;99.90;14.60;99253;;;;559300;253;24119;-83
2023/07/28 03:34:14;;;;;;;6.00;3.03;;;15.10;99.90;14.60;99249;;;;559452;253;24116;-84
2023/07/28 03:36:39;;;;;;;4.20;3.07;;;15.10;99.90;14.60;99248;;;;559529;253;24166;-83
2023/07/28 03:39:07;;;;;;;4.00;2.97;;;15.20;99.90;14.60;99250;;;;559514;253;24163;-83
2023/07/28 03:41:36;;;;;;;3.13;2.70;;;15.20;99.90;14.70;99248;;;;559415;253;24174;-85
2023/07/28 03:44:05;;;;;;;6.03;3.10;;;15.20;99.90;14.70;99251;;;;559588;253;24150;-83
2023/07/28 03:46:33;;;;;;;3.03;2.77;;;15.20;99.90;14.70;99255;;;;559574;253;24166;-82
2023/07/28 03:49:01;;;;;;;7.87;3.20;;;15.30;99.90;14.80;99244;;;;559214;253;24196;-84
2023/07/28 03:51:33;;;;;;;10.80;3.20;;;15.30;99.90;14.80;99241;;;;559362;253;24177;-83
2023/07/28 03:53:57;;;;;;;6.83;3.23;;;15.40;99.90;14.80;99239;;;;558966;253;24126;-82
2023/07/28 03:56:25;;;;;;;2.93;2.63;;;15.40;99.90;14.90;99237;;;;558958;253;24180;-81
2023/07/28 03:58:54;;;;;;;3.50;3.03;;;15.40;99.90;14.90;99237;;;;559410;251;24145;-83
2023/07/28 04:01:21;;;;;;;2.63;2.43;;;15.40;99.90;14.90;99235;;;;560168;252;24163;-83
2023/07/28 04:03:48;;;;;;;7.93;2.80;;;15.50;99.90;15.00;99234;;;;559888;252;24153;-82
2023/07/28 04:06:17;;;;;;;4.10;2.83;;;15.50;99.90;15.00;99225;;;;559640;252;24106;-82
2023/07/28 04:08:49;;;;;;;4.77;3.23;;;15.50;99.90;15.00;99233;;;;559455;252;24118;-83
2023/07/28 04:11:13;;;;;;;3.27;2.70;;;15.60;99.90;15.00;99244;;;;559116;252;24126;-82
2023/07/28 04:13:41;;;;;;;5.37;3.07;;;15.50;99.90;15.10;99229;;;;559340;252;24161;-83
2023/07/28 04:16:09;;;;;;;4.17;2.77;;;15.60;99.90;15.10;99231;;;;556688;252;24123;-82
2023/07/28 04:18:37;;;;;;;5.37;2.70;;;15.60;99.90;15.10;99230;;;;559709;252;24223;-85
2023/07/28 04:21:05;;;;;;;6.27;2.97;;;15.60;99.90;15.20;99230;;;;560399;252;24181;-85
2023/07/28 04:23:33;;;;;;;3.73;2.90;;;15.70;99.90;15.20;99225;;;;560120;252;24229;-85
2023/07/28 04:26:01;;;;;;;5.67;3.03;;;15.70;99.90;15.20;99226;;;;559681;252;24167;-86
2023/07/28 04:28:29;;;;;;;3.23;2.83;;;15.80;99.90;15.30;99226;;;;559747;252;24168;-85
2023/07/28 04:30:57;;;;;;;4.07;3.47;;;15.90;99.90;15.30;99217;;;;560069;252;24111;-87
2023/07/28 04:33:25;;;;;;;5.60;2.87;;;15.90;99.90;15.40;99212;;;;559762;252;24118;-85
2023/07/28 04:35:53;;;;;;;3.30;3.00;;;15.90;99.90;15.40;99214;;;;559707;253;24115;-86
2023/07/28 04:38:21;;;;;;;3.50;3.20;;;16.00;99.90;15.50;99212;;;;559558;253;24144;-85
2023/07/28 04:40:52;;;;;;;5.17;3.47;;;16.00;99.90;15.50;99204;;;;559195;253;24197;-83
2023/07/28 04:43:17;;;;;;;9.77;3.70;;;16.00;99.90;15.60;99205;;;;559005;253;24155;-83
2023/07/28 04:45:48;;;;;;;5.27;2.93;;;16.10;99.90;15.60;99201;;;;559094;253;24162;-83
2023/07/28 04:48:13;;;;;;;3.23;2.83;;;16.10;99.90;15.60;99204;;;;557089;253;24130;-83
2023/07/28 04:50:41;;;;;;;3.83;3.47;;;16.20;99.90;15.70;99204;;;;559292;253;24107;-83
2023/07/28 04:53:09;;;;;;;7.03;3.60;;;16.30;99.90;15.80;99189;;;;559177;253;24147;-82
2023/07/28 04:55:38;;;;;;;5.57;3.47;;;16.30;99.90;15.80;99196;;;;559223;253;24112;-81
2023/07/28 04:58:09;;;;;;;10.87;3.47;;;16.30;99.90;15.90;99191;;;;559033;253;24190;-82
2023/07/28 05:00:34;;;;;;;9.03;3.50;;;16.40;99.90;16.00;99187;;;;559077;253;24159;-82
2023/07/28 05:03:05;;;;;;;7.20;2.77;;;16.50;99.90;16.00;99189;;;;559233;253;24194;-81
2023/07/28 05:05:30;;;;;;;11.93;3.53;;;16.60;99.90;16.10;99184;;;;567475;250;24132;-81
2023/07/28 05:07:59;;;;;;;8.50;3.40;;;16.60;99.90;16.10;99191;;;;559353;253;24178;-80
2023/07/28 05:10:36;;;;;;;12.67;3.43;;;16.60;99.90;16.10;99188;;;;559388;250;24106;-82
2023/07/28 05:13:04;;;;;;;11.13;4.00;;;16.60;99.90;16.10;99186;;;;560472;252;24151;-83
2023/07/28 05:15:32;;;;;;;14.20;3.07;;;16.70;99.90;16.20;99196;;;;560150;252;24161;-81
2023/07/28 05:18:00;;;;;;;10.10;3.23;;;16.70;99.90;16.20;99183;;;;560048;252;24143;-81
2023/07/28 05:20:32;;;;;;;11.07;3.77;;;16.80;99.90;16.20;99194;;;;559855;252;24156;-82
2023/07/28 05:22:57;;;;;;;8.87;3.27;;;16.70;99.90;16.30;99192;;;;559175;252;24203;-82
2023/07/28 05:25:25;;;;;;;3.67;2.83;;;16.80;99.90;16.30;99188;;;;559308;252;24154;-83
2023/07/28 05:28:04;;;;;;;7.80;3.17;;;16.90;99.90;16.40;99188;;;;559400;252;24127;-81
2023/07/28 05:30:29;;;;;;;9.03;3.77;;;16.90;99.90;16.50;99177;;;;559174;252;24156;-82
2023/07/28 05:33:00;;;;;;;12.37;4.00;;;17.00;99.90;16.60;99176;;;;559563;252;24169;-82
2023/07/28 05:35:24;;;;;;;8.90;3.93;;;17.10;99.90;16.70;99163;;;;559676;252;24120;-86
2023/07/28 05:37:54;;;;;;;6.17;4.23;;;17.40;99.90;16.80;99170;;;;559889;252;24139;-85
2023/07/28 05:40:21;;;;;;;7.00;3.80;;;17.30;99.90;16.90;99155;;;;559954;252;24184;-86
2023/07/28 05:42:49;;;;;;;7.77;4.03;;;17.50;99.90;17.10;99166;;;;560022;252;24168;-83
2023/07/28 05:45:17;;;;;;;10.63;4.47;;;17.60;99.90;17.20;99164;;;;559953;252;24108;-85
2023/07/28 05:47:46;;;;;;;8.97;5.10;;;17.70;99.90;17.30;99152;;;;559840;253;24110;-85
2023/07/28 05:50:14;;;;;;;8.50;4.37;;;17.90;99.90;17.40;99156;;;;559945;253;24154;-86
2023/07/28 05:52:42;;;;;;;10.70;4.63;;;18.00;99.90;17.50;99155;;;;559052;253;24165;-86
2023/07/28 05:55:10;;;;;;;5.10;3.90;;;18.10;99.90;17.70;99158;;;;559594;253;24135;-85
2023/07/28 05:57:38;;;;;;;6.23;3.63;;;18.20;99.90;17.90;99152;;;;559384;253;24134;-86
2023/07/28 06:00:09;;;;;;;6.80;3.87;;;18.40;99.90;18.00;99149;;;;559054;253;24197;-86
2023/07/28 06:02:34;;;;;;;6.30;3.37;;;18.70;99.90;18.20;99148;;;;559440;253;24124;-85
2023/07/28 06:05:02;;;;;;;5.27;3.73;;;18.70;99.90;18.40;99153;;;;559471;253;24159;-86
2023/07/28 06:07:30;;;;;;;10.37;3.63;;;18.90;99.90;18.60;99162;;;;559558;253;24108;-86
2023/07/28 06:09:59;;;;;;;7.43;4.00;;;19.20;99.90;18.90;99160;;;;559944;253;24146;-82
2023/07/28 06:12:26;;;;;;;4.17;3.60;;;19.40;99.90;19.10;99147;;;;560165;253;24111;-85
2023/07/28 06:14:54;;;;;;;4.43;3.93;;;19.60;99.90;19.30;99151;;;;559758;253;24177;-86
2023/07/28 06:17:22;;;;;;;3.37;3.00;;;19.80;99.90;19.50;99149;;;;559621;253;24124;-85
2023/07/28 06:19:50;;;;;;;6.13;4.23;;;20.00;99.90;19.70;99153;;;;559459;253;23144;-82
2023/07/28 06:22:18;;;;;;;10.33;3.77;;;20.20;99.90;19.90;99152;;;;559687;252;24118;-85
2023/07/28 06:24:49;;;;;;;6.83;3.70;;;20.40;99.90;20.10;99157;;;;560302;252;23174;-82
2023/07/28 06:27:14;;;;;;;8.87;4.37;;;20.60;99.90;20.30;99154;;;;559727;252;24198;-84
2023/07/28 06:29:41;;;;;;;7.43;3.73;;;20.80;99.90;20.40;99155;;;;559893;252;24130;-83
2023/07/28 06:32:09;;;;;;;4.53;3.57;;;20.90;99.90;20.40;99147;;;;559665;252;24120;-84
2023/07/28 06:34:37;;;;;;;5.03;3.60;;;20.90;99.90;20.50;99145;;;;559650;252;24135;-83
2023/07/28 06:37:05;;;;;;;9.83;3.47;;;21.00;99.90;20.60;99147;;;;559765;252;24166;-83
2023/07/28 06:39:33;;;;;;;4.93;3.60;;;21.10;99.90;20.70;99152;;;;559762;252;24119;-83
2023/07/28 06:42:02;;;;;;;8.47;4.20;;;21.30;99.90;20.80;99154;;;;559509;252;23138;-83
2023/07/28 06:44:30;;;;;;;8.77;3.77;;;21.30;99.90;20.90;99150;;;;559572;252;24096;-86
2023/07/28 06:46:58;;;;;;;9.80;4.70;;;21.40;99.90;20.90;99151;;;;559647;252;24100;-87
2023/07/28 06:49:25;;;;;;;11.30;4.60;;;21.50;99.90;21.10;99151;;;;559618;252;24140;-85
2023/07/28 06:51:54;;;;;;;9.17;4.33;;;21.80;99.90;21.30;99146;;;;559653;252;24108;-85
2023/07/28 06:54:23;;;;;;;9.00;4.20;;;22.00;99.90;21.60;99141;;;;559472;252;24122;-84
2023/07/28 06:56:51;;;;;;;7.17;4.00;;;22.00;99.90;21.80;99145;;;;559098;252;24119;-84
2023/07/28 06:59:19;;;;;;;7.07;4.60;;;22.20;99.90;22.00;99142;;;;558923;253;23147;-85
2023/07/28 07:01:46;;;;;;;7.30;4.30;;;22.50;99.90;22.30;99140;;;;559266;253;24146;-86
2023/07/28 07:04:15;;;;;;;5.83;3.77;;;23.10;99.90;22.60;99142;;;;559300;253;24156;-85
2023/07/28 07:06:43;;;;;;;8.57;3.83;;;23.10;99.90;23.10;99144;;;;559317;253;24124;-83
2023/07/28 07:09:14;;;;;;;10.13;4.30;;;23.50;99.90;23.40;99144;;;;559405;253;24171;-83
2023/07/28 07:11:39;;;;;;;6.67;3.73;;;23.90;99.90;23.60;99147;;;;559234;253;24170;-83
2023/07/28 07:14:10;;;;;;;8.97;4.03;;;24.10;99.90;23.70;99146;;;;559420;253;23127;-83
2023/07/28 07:16:35;;;;;;;6.07;4.47;;;24.20;99.90;23.60;99153;;;;559174;253;23168;-83
2023/07/28 07:19:03;;;;;;;4.90;4.40;;;24.10;99.90;23.60;99151;;;;559551;253;23196;-84
2023/07/28 07:21:33;;;;;;;8.33;4.37;;;24.10;99.90;23.50;99148;;;;559632;253;24122;-84
2023/07/28 07:23:58;;;;;;;8.13;4.07;;;24.00;99.90;23.50;99150;;;;567970;250;24115;-86
2023/07/28 07:26:29;;;;;;;4.73;4.33;;;24.00;99.90;23.50;99146;;;;559337;253;23140;-84
2023/07/28 07:28:54;;;;;;;6.40;4.80;;;24.00;99.90;23.70;99146;;;;558973;253;23195;-85
2023/07/28 07:31:23;;;;;;;9.10;4.17;;;24.20;99.90;24.10;99145;;;;559124;253;23136;-84
2023/07/28 07:33:54;;;;;;;7.67;4.70;;;24.60;99.90;24.40;99153;;;;559382;252;24230;-84
2023/07/28 07:36:18;;;;;;;7.80;4.07;;;24.80;99.90;24.60;99152;;;;560362;252;23144;-83
2023/07/28 07:38:49;;;;;;;10.67;4.40;;;25.10;99.90;24.90;99146;;;;560573;252;23220;-84
2023/07/28 07:41:21;;;;;;;12.40;4.33;;;25.50;99.90;24.90;99155;;;;559983;252;24138;-82
2023/07/28 07:43:45;;;;;;;6.78;4.80;;;25.40;99.90;25.00;99151;;;;555057;252;35646;-82
2023/07/28 07:46:13;;;;;;;5.60;4.23;;;25.50;98.60;24.90;99147;;;;568111;252;23136;-83
2023/07/28 07:48:45;;;;;;;3.80;3.50;;;25.50;98.50;24.90;99155;;;;559821;252;24130;-83
2023/07/28 07:51:10;;;;;;;7.13;4.07;;;25.60;98.20;25.10;99159;;;;557756;252;23211;-84
2023/07/28 07:53:42;;;;;;;8.13;4.10;;;25.60;98.20;25.00;99152;;;;559612;252;24125;-83
2023/07/28 07:56:10;;;;;;;5.77;4.33;;;25.60;97.40;24.90;99164;;;;559051;252;23265;-84
2023/07/28 07:58:38;;;;;;;5.50;4.33;;;25.50;96.90;24.40;99152;;;;557156;252;23151;-85
2023/07/28 08:01:06;;;;;;;5.97;4.30;;;24.70;97.70;24.00;99156;;;;559237;252;24135;-84
2023/07/28 08:03:36;;;;;;;4.70;3.53;;;24.70;97.70;23.80;99153;;;;559014;252;24157;-85
2023/07/28 08:06:02;;;;;;;7.30;4.30;;;24.40;98.40;23.70;99158;;;;559101;252;24124;-82
2023/07/28 08:08:27;;;;;;;5.87;4.30;;;24.20;99.00;23.60;99158;;;;567666;250;24108;-83
2023/07/28 08:10:59;;;;;;;11.67;4.43;;;24.00;99.70;23.50;99153;;;;559832;253;23123;-83
2023/07/28 08:13:27;;;;;;;8.20;4.20;;;24.00;99.60;23.50;99148;;;;567662;249;24171;-84
2023/07/28 08:15:52;;;;;;;5.60;4.07;;;24.00;99.60;23.40;99160;;;;559442;253;23163;-84
2023/07/28 08:18:20;;;;;;;6.90;3.53;;;23.90;99.90;23.30;99164;;;;559393;253;24125;-82
2023/07/28 08:20:48;;;;;;;5.45;4.25;;;23.80;99.90;23.10;99159;;;;554601;253;35514;-82
2023/07/28 08:23:19;;;;;;;9.43;3.70;;;23.70;99.60;22.80;99154;;;;559442;253;23168;-83
2023/07/28 08:25:43;;;;;;;12.40;3.93;;;23.40;99.90;22.60;99163;;;;558998;253;24124;-83
2023/07/28 08:28:12;;;;;;;4.97;3.50;;;23.00;99.90;22.40;99158;;;;558957;253;24119;-84
2023/07/28 08:30:40;;;;;;;3.60;3.27;;;23.00;99.90;22.20;99152;;;;558905;253;23134;-83
2023/07/28 08:33:08;;;;;;;7.13;4.90;;;22.70;99.90;22.00;99161;;;;558929;253;24121;-83
2023/07/28 08:35:36;;;;;;;3.73;3.00;;;22.50;99.90;21.70;99154;;;;559862;253;24132;-83
2023/07/28 08:38:04;;;;;;;4.50;3.13;;;22.20;99.90;21.30;99156;;;;560206;253;24103;-84
2023/07/28 08:40:32;;;;;;;6.17;3.43;;;21.90;99.90;21.00;99150;;;;560572;253;24162;-84
2023/07/28 08:43:00;;;;;;;11.30;6.20;;;21.50;99.90;20.70;99151;;;;560158;253;24126;-82
2023/07/28 08:45:28;;;;;;;8.07;4.37;;;21.30;99.90;20.60;99151;;;;560488;252;24130;-86
2023/07/28 08:47:55;;;;;;;3.07;2.77;;;21.10;99.90;20.60;99159;;;;560941;252;24160;-85
2023/07/28 08:50:23;;;;;;;4.17;2.43;;;21.00;99.90;20.60;99155;;;;560228;252;24150;-83
2023/07/28 08:52:51;;;;;;;9.90;3.90;;;21.00;99.90;20.70;99159;;;;560419;252;24176;-82
2023/07/28 08:55:19;;;;;;;10.13;3.63;;;21.10;99.90;20.80;99162;;;;560449;252;24145;-82
2023/07/28 08:57:51;;;;;;;6.47;3.20;;;21.20;99.90;20.90;99164;;;;560025;252;24171;-82
2023/07/28 09:00:18;;;;;;;3.27;2.93;;;21.30;99.90;21.00;99163;;;;559771;252;24114;-82
2023/07/28 09:02:46;;;;;;;4.93;3.60;;;21.50;99.90;21.10;99161;;;;568468;249;24208;-84
2023/07/28 09:05:23;;;;;;;4.23;3.43;;;21.50;99.90;21.20;99157;;;;560965;250;24183;-83
2023/07/28 09:07:52;;;;;;;4.87;3.30;;;21.60;99.90;21.30;99160;;;;560915;251;24108;-84
2023/07/28 09:10:16;;;;;;;6.07;3.40;;;21.70;99.90;21.40;99160;;;;568574;252;24181;-84
2023/07/28 09:12:46;;;;;;;6.13;3.87;;;21.80;99.90;21.40;99170;;;;559709;252;24126;-83
2023/07/28 09:15:16;;;;;;;4.43;4.03;;;21.90;99.90;21.40;99170;;;;562727;252;35498;-83
2023/07/28 09:17:45;;;;;;;5.83;3.67;;;21.90;99.90;21.50;99166;;;;559639;252;24181;-83
2023/07/28 09:20:10;;;;;;;5.50;3.90;;;22.00;99.90;21.60;99169;;;;557272;252;24204;-84
2023/07/28 09:22:39;;;;;;;4.53;3.97;;;22.00;99.90;21.50;99170;;;;567372;253;24180;-83
2023/07/28 09:25:16;;;;;;;4.77;3.67;;;21.90;99.90;21.40;99168;;;;559353;253;24135;-84
2023/07/28 09:27:53;;;;;;;6.27;4.10;;;21.80;99.90;21.40;99163;;;;567580;253;24209;-82
2023/07/28 09:30:21;;;;;;;8.93;4.23;;;21.90;99.90;21.40;99171;;;;559093;253;24115;-83
2023/07/28 09:32:49;;;;;;;5.40;4.07;;;21.90;99.90;21.40;99164;;;;567481;253;24118;-82
2023/07/28 09:35:19;;;;;;;5.63;3.90;;;21.90;99.90;21.60;99162;;;;556699;253;24150;-83
2023/07/28 09:37:48;;;;;;;4.97;3.87;;;22.00;99.90;21.80;99163;;;;562507;253;24146;-83
2023/07/28 09:40:12;;;;;;;9.90;3.77;;;22.20;99.90;22.10;99159;;;;557018;253;24116;-83
2023/07/28 09:42:48;;;;;;;6.83;4.07;;;22.80;99.90;22.40;99162;;;;559284;253;24131;-84
2023/07/28 09:45:15;;;;;;;3.70;3.40;;;22.80;99.90;22.40;99168;;;;556876;253;24154;-85
2023/07/28 09:47:40;;;;;;;8.17;4.20;;;22.90;99.90;22.50;99165;;;;559157;253;24120;-84
2023/07/28 09:50:08;;;;;;;7.53;4.80;;;23.00;99.90;22.60;99159;;;;559421;253;24218;-83
2023/07/28 09:52:36;;;;;;;5.33;4.83;;;23.10;99.90;22.80;99161;;;;567646;249;24124;-85
2023/07/28 09:55:16;;;;;;;6.27;4.30;;;23.20;99.90;23.00;99161;;;;557172;253;24189;-82
2023/07/28 09:57:37;;;;;;;8.50;4.00;;;23.40;99.90;23.50;99158;;;;559060;252;24133;-83
2023/07/28 10:00:07;;;;;;;6.13;4.50;;;23.90;99.90;24.00;99163;;;;567469;252;23172;-84
2023/07/28 10:02:36;;;;;;;4.63;4.23;;;24.40;99.90;24.30;99164;;;;560022;252;23140;-80
2023/07/28 10:05:05;;;;;;;7.63;4.73;;;24.70;99.90;24.40;99165;;;;559566;252;23180;-82
2023/07/28 10:07:33;;;;;;;5.30;4.07;;;24.90;99.90;24.40;99166;;;;567735;252;23129;-82
2023/07/28 10:09:57;;;;;;;4.97;4.47;;;24.90;99.90;24.40;99162;;;;559528;252;24171;-82
2023/07/28 10:12:44;;;;;;;;;;;;;;;;;;;;;
2023/07/28 10:15:02;;;;;;;5.27;4.77;;;24.90;99.90;24.30;99169;;;;564480;249;23158;-82
2023/07/28 10:17:34;;;;;;;5.07;4.67;;;24.80;99.90;24.10;99167;;;;557503;252;24149;-85
2023/07/28 10:20:08;;;;;;;7.30;4.67;;;24.70;99.90;24.10;99165;;;;557577;252;23151;-84
2023/07/28 10:22:32;;;;;;;5.73;4.60;;;24.60;99.90;23.90;99170;;;;567840;249;23180;-82
2023/07/28 10:25:05;;;;;;;5.47;4.60;;;24.50;99.90;23.60;99169;;;;559556;252;23168;-83
2023/07/28 10:27:49;;;;;;;7.23;4.33;;;24.20;99.90;23.50;99170;;;;559847;252;23154;-85
2023/07/28 10:30:14;;;;;;;6.30;4.37;;;24.00;99.90;23.50;99168;;;;556254;252;24185;-84
2023/07/28 10:32:42;;;;;;;5.63;4.83;;;23.90;99.90;23.60;99169;;;;559178;253;24142;-84
2023/07/28 10:35:13;;;;;;;6.67;4.57;;;24.10;99.90;23.70;99170;;;;567265;249;23157;-84
2023/07/28 10:37:49;;;;;;;5.27;4.73;;;24.00;99.90;23.80;99172;;;;558565;253;23144;-82
2023/07/28 10:40:33;;;;;;;7.30;4.13;;;24.20;99.90;24.00;99177;;;;559453;253;23136;-83
2023/07/28 10:43:02;;;;;;;4.90;4.50;;;24.40;99.90;24.10;99171;;;;559424;253;23143;-82
2023/07/28 10:45:34;;;;;;;5.13;4.20;;;24.60;99.90;24.20;99175;;;;559430;253;24143;-83
2023/07/28 10:48:03;;;;;;;5.57;4.47;;;24.50;99.90;24.20;99172;;;;557108;253;24154;-83
2023/07/28 10:50:34;;;;;;;6.67;4.57;;;24.60;99.90;24.40;99180;;;;557263;253;24149;-83
2023/07/28 10:53:03;;;;;;;5.20;4.33;;;24.80;99.90;24.70;99174;;;;559401;253;24159;-83
2023/07/28 10:55:30;;;;;;;4.33;3.93;;;25.10;99.90;24.90;99180;;;;567606;250;24120;-83
2023/07/28 10:57:58;;;;;;;5.77;4.20;;;25.70;99.90;25.30;99184;;;;567509;249;23152;-83
2023/07/28 11:00:23;;;;;;;7.53;4.70;;;25.60;99.90;25.50;99183;;;;559200;253;23146;-84
2023/07/28 11:02:51;;;;;;;7.30;5.10;;;25.90;99.90;25.80;99188;;;;554252;253;35508;-82
2023/07/28 11:05:25;;;;;;;5.30;4.80;;;26.20;99.60;26.00;99186;;;;562389;253;24158;-84
2023/07/28 11:07:59;;;;;;;4.87;4.30;;;26.40;99.80;26.20;99182;;;;557939;253;23215;-84
2023/07/28 11:10:32;;;;;;;5.87;4.40;;;26.60;98.70;26.40;99183;;;;562134;252;23155;-83
2023/07/28 11:12:57;;;;;;;6.27;4.20;;;26.80;98.30;26.50;99182;;;;560952;252;23156;-84
2023/07/28 11:15:28;;;;;;;5.00;4.53;;;27.00;98.30;26.90;99183;;;;557972;252;23128;-84
2023/07/28 11:17:56;;;;;;;4.20;3.90;;;27.30;97.70;27.30;99180;;;;559775;252;24211;-84
2023/07/28 11:20:23;;;;;;;4.25;3.83;;;27.70;97.10;27.40;99177;;;;557681;252;23137;-83
2023/07/28 11:23:00;;;;;;;9.40;4.72;;;27.90;95.30;27.30;99175;;;;556994;252;23129;-83